Arapaho, Oklahoma
Current Conditions -  °F | °C
As of 6:15 PM on Saturday 25 Oct 2014 (Local Time) from KCLK Reporting Station
Clear Clear  
Wind Chill: 86°   Ceiling: Unl
Heat Index: 86°   Visibility: 10mi
Dew Point: 45°   Wind: 7mph
Humidity: 23%   Direction: 190°S
Pressure: 30.03"   Gusts: NA
Location:  35.58°N, 98.96°W
Report Text: KCLK 252315Z AUTO 19006KT 10SM CLR 30/07 A3003 RMK AO2
Loading
Personal Weather Stations






























Interactive Weather Map
Tropical Storm Tracking
New forecast layout! Learn more

10-Day Weather Forecast

Advertisements
Track Severe Weather on mobile